Burns Pinion Ridge Reserve, California Weather observations

Data are for 10 minute period ending at time listed.
 Day   Time   Solar   Ave.   Ave.  Ave.  Vector  Max.   Baro.   Total    
  of    of     Rad.   Air    Rel.  Wind   Wind   Wind  Press.  Precip.   
Year   Day            Temp.  Hum.  Speed  Dir.   Gust                    
2015   (PST)  Kw/m2    F      %     mph   deg.    mph    mb.     in.     
-------------------------------------------------------------------------
 240    5:10   0.00   68.5    48    0.4   248     1.4   877.6    0.00 
 240    5:20   0.00   67.9    49    1.4   250     1.6   877.6    0.00 
 240    5:30   0.01   68.9    48    1.6   245     2.6   877.5    0.00 
 240    5:40   0.01   70.7    45    2.6   262     3.4   877.5    0.00 
 240    5:50   0.02   72.1    42    1.4   287     3.0   877.6    0.00 
 240    6:00   0.03   72.3    42    1.0   342     1.9   877.7    0.00 
 240    6:10   0.05   72.5    41    0.9   288     3.1   877.9    0.00 
 240    6:20   0.13   76.7    35    0.1   284     1.3   878.1    0.00 
 240    6:30   0.17   81.8    30    0.3   235     1.6   878.3    0.00 
 240    6:40   0.20   84.8    27    0.9   251     2.0   878.4    0.00 
 240    6:50   0.24   85.6    26    1.4   338     2.9   878.5    0.00 
 240    7:00   0.27   83.9    28    2.5   315     3.5   878.5    0.00 
 240    7:10   0.31   84.7    27    2.1   322     3.3   878.6    0.00 
 240    7:20   0.35   85.7    26    2.7   327     4.7   878.6    0.00 
 240    7:30   0.39   86.4    25    2.3   303     4.4   878.7    0.00 
 240    7:40   0.42   87.5    24    1.7   248     4.2   878.8    0.00 
 240    7:50   0.46   88.7    23    2.7   195     4.7   878.8    0.00 
 240    8:00   0.49   89.4    23    1.1   144     3.7   878.8    0.00 
 240    8:10   0.53   90.0    22    2.4   148     5.6   878.7    0.00 
 240    8:20   0.56   88.3    24    2.8   109     6.1   878.8    0.00 
 240    8:30   0.59   88.8    24    3.0   169     6.9   878.8    0.00 
 240    8:40   0.62   89.9    23    2.5   169     6.1   878.7    0.00 
 240    8:50   0.65   89.7    23    2.1   171     5.6   878.7    0.00 
 240    9:00   0.68   89.3    25    2.8   109     5.3   878.7    0.00 
 240    9:10   0.71   89.0    25    4.1   121     8.6   878.7    0.00 
 240    9:20   0.73   91.0    23    2.6   121     6.7   878.5    0.00 
 240    9:30   0.76   91.8    22    2.2   192     9.2   878.5    0.00 
 240    9:40   0.78   90.9    22    2.9   257     7.2   878.4    0.00 
 240    9:50   0.81   90.4    22    3.2   273     7.2   878.3    0.00 
 240   10:00   0.83   92.5    21    1.4   317     4.7   878.3    0.00 
 240   10:10   0.84   91.5    22    5.3   207    11.9   878.2    0.00 
 240   10:20   0.86   90.8    22    2.8    27     6.9   878.1    0.00 
 240   10:30   0.88   91.5    21    5.1   230    11.2   878.0    0.00 
 240   10:40   0.89   92.9    20    4.0   180     8.0   878.0    0.00 
 240   10:50   0.90   92.5    20    4.5   276     9.4   877.9    0.00 
 240   11:00   0.91   91.8    21    4.5   261    12.0   877.8    0.00 
 240   11:10   0.92   92.5    21    4.8   225    12.0   877.6    0.00 
 240   11:20   0.92   92.4    20    4.8   214    11.0   877.5    0.00 
 240   11:30   0.94   92.3    20    5.9   250    13.6   877.3    0.00 
 240   11:40   0.94   92.3    20    6.4   230    14.2   877.2    0.00 
 240   11:50   0.95   93.9    18    4.7   229    10.7   877.1    0.00 
 240   12:00   0.92   94.2    18    5.9   173    14.1   877.1    0.00 
 240   12:10   0.94   93.9    18   10.2   144    18.9   876.9    0.00 
 240   12:20   0.94   93.8    16   10.3   140    17.5   876.8    0.00 
 240   12:30   0.94   95.2    15    6.5   176    16.0   876.8    0.00 
 240   12:40   0.93   96.2    14    7.7   161    18.7   876.8    0.00 
 240   12:50   0.92   94.9    15   10.0   145    18.1   876.8    0.00 
 240   13:00   0.90   94.6    16    8.9   149    19.5   876.8    0.00 
 240   13:10   0.90   93.8    19    7.6   208    16.7   876.7    0.00 
 240   13:20   0.88   95.1    18    6.2   213    15.3   876.5    0.00 
 240   13:30   0.86   96.1    17    5.1   190    13.6   876.5    0.00 
 240   13:40   0.84   96.2    17    7.0   170    13.9   876.4    0.00 
 240   13:50   0.82   94.9    17    9.9   144    19.6   876.3    0.00 
 240   14:00   0.80   95.1    16    9.5   155    17.9   876.2    0.00 
 240   14:10   0.78   95.1    16    6.0   154    18.3   876.1    0.00 
 240   14:20   0.76   94.9    17    7.0   167    14.2   875.9    0.00 
 240   14:30   0.73   95.5    17    7.6   152    15.1   875.8    0.00 
 240   14:40   0.71   94.3    18    9.5   143    17.1   875.7    0.00 
 240   14:50   0.68   94.7    18    9.3   161    17.9   875.6    0.00 
 240   15:00   0.65   94.7    18    6.3   179    16.5   875.5    0.00 
 240   15:10   0.62   95.6    17    5.5   203    12.6   875.5    0.00 
 240   15:20   0.50   95.0    18    6.9   207    13.1   875.4    0.00 
 240   15:30   0.53   93.6    18    6.1   218    13.5   875.3    0.00 
 240   15:40   0.52   94.9    18    4.3   211    11.3   875.2    0.00 
 240   15:50   0.53   94.7    18    5.0   203    13.2   875.2    0.00 
 240   16:00   0.48   94.7    18    4.7   231    13.5   875.1    0.00 
 240   16:10   0.40   94.0    18    7.4   212    16.6   875.1    0.00 
 240   16:20   0.27   93.5    19    3.9   198    10.1   875.1    0.00 
 240   16:30   0.17   92.6    19    3.9   175    10.2   875.0    0.00 
 240   16:40   0.26   92.8    19    5.8   201    13.1   875.0    0.00 
 240   16:50   0.24   92.7    19    5.5   187    15.3   874.9    0.00 
 240   17:00   0.21   92.3    19    7.3   212    17.0   874.9    0.00 
 240   17:10   0.17   90.7    20    9.9   214    21.5   875.0    0.00 
 240   17:20   0.14   89.9    21    9.0   213    18.0   874.9    0.00 
 240   17:30   0.10   89.9    21    6.8   210    13.5   874.9    0.00 
 240   17:40   0.07   88.8    21   11.4   217    19.8   875.0    0.00 
 240   17:50   0.05   88.3    21    7.0   211    15.6   875.0    0.00 
 240   18:00   0.03   87.7    22    7.9   215    15.3   875.2    0.00 
 240   18:10   0.01   86.8    22    8.3   214    16.1   875.2    0.00 
 240   18:20   0.00   86.3    23    5.8   198    11.7   875.3    0.00 
 240   18:30   0.00   85.9    23    6.9   210    15.4   875.4    0.00 
 240   18:40   0.00   85.5    23    7.4   211    13.4   875.5    0.00 
 240   18:50   0.00   85.0    24    5.3   184    13.8   875.6    0.00 
 240   19:00   0.00   84.6    24    6.5   207    12.7   875.7    0.00 
 240   19:10   0.00   84.2    24    4.5   188    10.4   875.9    0.00 
 240   19:20   0.00   83.8    25    4.7   210    11.4   876.0    0.00 
 240   19:30   0.00   83.7    25    4.6   204    11.3   876.0    0.00 
 240   19:40   0.00   83.5    25    4.9   216    10.2   876.2    0.00 
 240   19:50   0.00   83.2    25    4.8   222    11.3   876.3    0.00 
 240   20:00   0.00   83.0    26    3.9   225     7.5   876.3    0.00 
 240   20:10   0.00   82.6    26    4.6   212    10.0   537.5    0.00 
 240   20:20   0.00   82.5    26    4.2   221     9.1   502.0    0.00 
 240   20:30   0.00   82.2    26    2.7   227     8.0   502.0    0.00 
 240   20:40   0.00   82.3    26    5.8   223    10.7   502.0    0.00 
 240   20:50   0.00   82.1    26    4.6   222     8.6   502.0    0.00 
 240   21:00   0.00   81.9    26    3.8   216     7.7   502.0    0.00 
 240   21:10   0.00   81.7    26    3.7   214     7.5   840.8    0.00 
 240   21:20   0.00   81.4    26    2.7   214     7.6   876.4    0.00 
 240   21:30   0.00   81.4    26    4.0   208     7.2   876.4    0.00 
 240   21:40   0.00   81.5    26    4.4   220     9.6   876.4    0.00 
 240   21:50   0.00   81.4    26    4.3   214     9.3   876.4    0.00 
 240   22:00   0.00   81.3    26    2.7   232     7.1   876.4    0.00 
 240   22:10   0.00   80.9    27    2.9   227     7.1   874.5    0.00 
 240   22:20   0.00   80.5    27    2.5   230     6.0   876.4    0.00 
 240   22:30   0.00   79.7    28    1.5   261     2.9   876.3    0.00 
 240   22:40   0.00   78.6    28    0.8   240     2.4   876.2    0.00 
 240   22:50   0.00   78.0    29    2.5   236     7.1   876.3    0.00 
 240   23:00   0.00   79.2    28    2.6   252     4.4   876.3    0.00 
 240   23:10   0.00   79.3    28    1.8   245     4.7   874.4    0.00 
 240   23:20   0.00   77.4    29    3.2   218     6.1   876.3    0.00 
 240   23:30   0.00   78.1    28    3.9   192     6.5   876.3    0.00 
 240   23:40   0.00   79.3    27    4.4   204     6.1   876.2    0.00 
 240   23:50   0.00   79.6    27    4.0   206     6.6   876.2    0.00 
 241    0:00   0.00   79.8    27    4.2   219     8.3   876.1    0.00 
 241    0:10   0.00   78.1    29    2.5   324     4.7   876.1    0.00 
 241    0:20   0.00   75.4    31    0.7     6     3.1   876.1    0.00 
 241    0:30   0.00   73.7    33    0.7    59     2.2   876.1    0.00 
 241    0:40   0.00   72.8    33    1.5    94     3.5   876.1    0.00 
 241    0:50   0.00   75.2    31    1.9    70     4.5   876.1    0.00 
 241    1:00   0.00   73.6    33    0.3   262     1.5   876.0    0.00 
 241    1:10   0.00   71.7    34    0.2    15     1.1   876.0    0.00 
 241    1:20   0.00   70.8    36    0.0     0     0.0   875.8    0.00 
 241    1:30   0.00   69.8    37    0.6   132     1.1   875.8    0.00 
 241    1:40   0.00   69.3    38    0.0   158     0.4   875.7    0.00 
 241    1:50   0.00   69.1    38    1.0   320     2.6   875.6    0.00 
 241    2:00   0.00   68.8    39    0.9   322     2.2   875.6    0.00 
 241    2:10   0.00   69.0    38    0.3   324     0.9   875.6    0.00 
 241    2:20   0.00   68.8    38    0.0   306     0.3   875.6    0.00 
 241    2:30   0.00   68.6    38    0.0   306     0.4   875.5    0.00 
 241    2:40   0.00   68.2    39    0.2   302     1.3   875.5    0.00 
 241    2:50   0.00   68.2    39    0.1   346     0.9   875.5    0.00 
 241    3:00   0.00   68.8    38    0.7   309     2.9   875.5    0.00 
 241    3:10   0.00   68.6    38    0.7   343     2.6   875.5    0.00 
 241    3:20   0.00   68.0    39    0.7   334     1.8   875.5    0.00 
 241    3:30   0.00   68.3    39    0.1   333     0.6   875.5    0.00 
 241    3:40   0.00   67.9    40    0.0     0     0.0   875.5    0.00 
 241    3:50   0.00   67.3    41    0.7   310     2.1   875.4    0.00 
 241    4:00   0.00   66.8    42    1.6   316     2.4   875.5    0.00 
 241    4:10   0.00   67.3    41    1.2   299     1.9   875.4    0.00 
 241    4:20   0.00   66.9    41    0.5   318     1.1   875.5    0.00 
 241    4:30   0.00   66.5    42    0.6   330     1.5   875.5    0.00 
 241    4:40   0.00   66.8    41    1.1   348     2.4   875.5    0.00 
 241    4:50   0.00   67.5    40    1.0   318     2.3   875.5    0.00 
 241    5:00   0.00   66.9    42    0.3   297     1.3   875.7    0.00 

Return to Burns Pinion Ridge Reserve graphs page.


Western Regional Climate Center,wrcc@dri.edu